Time;durP1;ratioP1;P1;durP2;ratioP2;P2;SDS_P1;SDS_P2;PMS_P1;PMS_P2;Temp;Humidity;BMP_temperature;BMP_pressure;BME280_temperature;BME280_humidity;BME280_pressure;Samples;Min_cycle;Max_cycle;Signal;HPM_P1;HPM_P2
2023/06/28 00:00:52;;;;;;;7.43;1.60;;;20.50;99.90;;;;;;5066445;28;20420;-75
2023/06/28 00:03:17;;;;;;;6.23;1.80;;;20.50;99.90;;;;;;5068619;28;20419;-75
2023/06/28 00:05:43;;;;;;;7.23;2.10;;;20.50;99.90;;;;;;5068578;28;20380;-75
2023/06/28 00:08:08;;;;;;;10.30;2.20;;;20.40;99.90;;;;;;5068245;28;20399;-75
2023/06/28 00:10:34;;;;;;;6.80;1.63;;;20.50;99.90;;;;;;5068976;28;20419;-75
2023/06/28 00:12:59;;;;;;;6.80;1.90;;;20.40;99.90;;;;;;5067852;28;20423;-75
2023/06/28 00:15:25;;;;;;;5.90;1.80;;;20.30;99.90;;;;;;5067650;28;20432;-75
2023/06/28 00:17:50;;;;;;;10.48;1.67;;;20.40;99.90;;;;;;5068194;28;20387;-75
2023/06/28 00:20:16;;;;;;;6.78;1.88;;;20.40;99.90;;;;;;5068396;28;20391;-75
2023/06/28 00:22:41;;;;;;;6.50;1.90;;;20.40;99.90;;;;;;5067871;28;20416;-75
2023/06/28 00:25:07;;;;;;;6.40;2.10;;;20.50;99.90;;;;;;5071126;28;20383;-75
2023/06/28 00:27:33;;;;;;;6.40;1.70;;;20.50;99.90;;;;;;5072366;28;20375;-77
2023/06/28 00:29:59;;;;;;;9.80;2.45;;;20.40;99.90;;;;;;5071368;28;20740;-75
2023/06/28 00:32:25;;;;;;;5.53;1.50;;;20.40;99.90;;;;;;5071760;28;20457;-75
2023/06/28 00:34:51;;;;;;;7.90;1.90;;;20.30;99.90;;;;;;5071600;28;20399;-75
2023/06/28 00:37:17;;;;;;;7.70;1.60;;;20.30;99.90;;;;;;5072011;28;20463;-75
2023/06/28 00:39:43;;;;;;;7.65;1.90;;;20.20;99.90;;;;;;5071837;28;20459;-75
2023/06/28 00:42:08;;;;;;;7.03;1.80;;;20.20;99.90;;;;;;5071483;28;20918;-75
2023/06/28 00:44:34;;;;;;;7.97;2.10;;;20.20;99.90;;;;;;5071655;28;20816;-75
2023/06/28 00:47:01;;;;;;;8.70;2.03;;;20.20;99.90;;;;;;5071681;28;20387;-76
2023/06/28 00:49:31;;;;;;;6.40;1.80;;;20.20;99.90;;;;;;5071141;28;20478;-77
2023/06/28 00:51:57;;;;;;;7.18;1.90;;;20.20;99.90;;;;;;5056073;28;20733;-77
2023/06/28 00:54:23;;;;;;;6.20;1.75;;;20.20;99.90;;;;;;5078683;28;20502;-75
2023/06/28 00:56:50;;;;;;;9.18;2.10;;;20.40;99.90;;;;;;5091954;28;20395;-75
2023/06/28 00:59:15;;;;;;;7.53;2.00;;;20.40;99.90;;;;;;5091414;28;21010;-75
2023/06/28 01:01:42;;;;;;;8.90;2.43;;;20.40;99.90;;;;;;5091668;28;20414;-77
2023/06/28 01:04:08;;;;;;;7.50;2.30;;;20.40;99.90;;;;;;5092012;28;20731;-76
2023/06/28 01:06:37;;;;;;;6.20;1.70;;;20.40;99.90;;;;;;5092390;28;20386;-76
2023/06/28 01:09:04;;;;;;;7.60;2.00;;;20.50;99.90;;;;;;5092396;28;20413;-76
2023/06/28 01:11:30;;;;;;;5.82;1.85;;;20.50;99.90;;;;;;5090842;28;20374;-77
2023/06/28 01:13:57;;;;;;;6.40;1.88;;;20.50;99.90;;;;;;5091313;28;20519;-76
2023/06/28 01:16:23;;;;;;;6.47;1.92;;;20.60;99.90;;;;;;5091680;28;20927;-76
2023/06/28 01:18:48;;;;;;;5.70;2.03;;;20.60;99.90;;;;;;5091423;28;20862;-76
2023/06/28 01:21:16;;;;;;;8.37;1.83;;;20.70;99.90;;;;;;5090849;28;20413;-76
2023/06/28 01:23:42;;;;;;;5.90;1.90;;;20.60;99.90;;;;;;5091044;28;20414;-76
2023/06/28 01:26:09;;;;;;;5.70;1.90;;;20.50;99.90;;;;;;5091467;28;20386;-76
2023/06/28 01:28:35;;;;;;;6.13;2.00;;;20.60;99.90;;;;;;5090478;28;20420;-76
2023/06/28 01:31:03;;;;;;;11.50;2.85;;;20.60;99.90;;;;;;5091482;28;20374;-76
2023/06/28 01:33:29;;;;;;;9.45;2.00;;;20.60;99.90;;;;;;5091167;28;20386;-76
2023/06/28 01:35:56;;;;;;;9.50;2.20;;;20.60;99.90;;;;;;5090266;28;20478;-76
2023/06/28 01:38:22;;;;;;;6.80;2.20;;;20.60;99.90;;;;;;5090545;28;20899;-76
2023/06/28 01:40:50;;;;;;;7.20;2.20;;;20.60;99.90;;;;;;5091019;28;20443;-76
2023/06/28 01:43:16;;;;;;;11.10;2.30;;;20.60;99.90;;;;;;5090312;28;20429;-76
2023/06/28 01:45:42;;;;;;;8.05;2.10;;;20.60;99.90;;;;;;5090339;28;20746;-76
2023/06/28 01:48:07;;;;;;;7.15;2.40;;;20.50;99.90;;;;;;5090815;28;20411;-76
2023/06/28 01:50:33;;;;;;;6.60;2.20;;;20.40;99.90;;;;;;5086847;28;20380;-76
2023/06/28 01:53:04;;;;;;;5.80;1.90;;;20.40;99.90;;;;;;5070501;28;20908;-76
2023/06/28 01:55:30;;;;;;;6.73;2.30;;;20.30;99.90;;;;;;5070232;28;20384;-76
2023/06/28 01:57:56;;;;;;;6.20;2.33;;;20.10;99.90;;;;;;5070094;28;20404;-78
2023/06/28 02:00:22;;;;;;;8.18;2.30;;;20.00;99.90;;;;;;5072229;28;20420;-79
2023/06/28 02:02:47;;;;;;;6.40;2.10;;;19.90;99.90;;;;;;5072200;28;20935;-79
2023/06/28 02:05:13;;;;;;;7.80;2.50;;;19.70;99.90;;;;;;5072901;28;20396;-79
2023/06/28 02:07:38;;;;;;;7.10;2.20;;;19.50;99.90;;;;;;5070901;28;20503;-78
2023/06/28 02:10:04;;;;;;;7.25;2.45;;;19.50;99.90;;;;;;5071254;28;20395;-75
2023/06/28 02:12:30;;;;;;;6.00;1.98;;;19.50;99.90;;;;;;5069588;28;20396;-75
2023/06/28 02:14:55;;;;;;;6.43;2.20;;;19.40;99.90;;;;;;5069894;28;20509;-75
2023/06/28 02:17:21;;;;;;;6.53;2.13;;;19.40;99.90;;;;;;5070132;28;20384;-76
2023/06/28 02:19:47;;;;;;;6.95;2.00;;;19.40;99.90;;;;;;5070590;28;20911;-76
2023/06/28 02:22:14;;;;;;;6.78;2.45;;;19.40;99.90;;;;;;5069565;28;20408;-76
2023/06/28 02:24:39;;;;;;;6.63;2.40;;;19.50;99.90;;;;;;5069565;28;20978;-76
2023/06/28 02:27:05;;;;;;;8.68;2.50;;;19.50;99.90;;;;;;5069577;28;20487;-76
2023/06/28 02:29:31;;;;;;;9.60;2.20;;;19.50;99.90;;;;;;5069931;28;20467;-75
2023/06/28 02:31:57;;;;;;;7.47;2.37;;;19.50;99.90;;;;;;5069941;28;20423;-76
2023/06/28 02:34:23;;;;;;;12.30;2.50;;;19.40;99.90;;;;;;5069729;28;20388;-76
2023/06/28 02:36:48;;;;;;;8.93;2.43;;;19.40;99.90;;;;;;5070314;28;20387;-75
2023/06/28 02:39:14;;;;;;;8.20;2.93;;;19.40;99.90;;;;;;5069418;28;20399;-75
2023/06/28 02:41:39;;;;;;;6.27;2.20;;;19.50;99.90;;;;;;5068906;28;20392;-76
2023/06/28 02:44:05;;;;;;;7.60;2.70;;;19.50;99.90;;;;;;5085594;28;20398;-75
2023/06/28 02:46:30;;;;;;;6.93;2.33;;;19.60;99.90;;;;;;5068579;28;20403;-75
2023/06/28 02:48:56;;;;;;;8.37;2.60;;;19.60;99.90;;;;;;5069229;28;20400;-75
2023/06/28 02:51:21;;;;;;;7.07;2.20;;;19.50;99.90;;;;;;5058579;28;20399;-75
2023/06/28 02:53:47;;;;;;;7.35;2.30;;;19.40;99.90;;;;;;5081208;28;20477;-75
2023/06/28 02:56:15;;;;;;;9.77;2.33;;;19.40;99.90;;;;;;5088844;28;20438;-75
2023/06/28 02:58:44;;;;;;;6.80;2.50;;;19.40;99.90;;;;;;5089489;28;20390;-75
2023/06/28 03:01:09;;;;;;;7.88;2.47;;;19.30;99.90;;;;;;5089171;28;20378;-75
2023/06/28 03:03:36;;;;;;;7.27;3.07;;;19.30;99.90;;;;;;5089500;28;20928;-75
2023/06/28 03:06:03;;;;;;;7.43;2.93;;;19.30;99.90;;;;;;5089831;28;20389;-76
2023/06/28 03:08:29;;;;;;;7.40;2.30;;;19.30;99.90;;;;;;5089299;28;20447;-76
2023/06/28 03:10:54;;;;;;;7.67;2.30;;;19.20;99.90;;;;;;5070863;28;20392;-76
2023/06/28 03:13:21;;;;;;;7.90;2.80;;;19.10;99.90;;;;;;5068004;28;20919;-76
2023/06/28 03:15:46;;;;;;;7.90;3.00;;;19.10;99.90;;;;;;5067706;28;20437;-76
2023/06/28 03:18:12;;;;;;;7.60;2.30;;;19.10;99.90;;;;;;5068748;28;20388;-76
2023/06/28 03:20:37;;;;;;;8.10;2.50;;;19.10;99.90;;;;;;5068781;28;20459;-76
2023/06/28 03:23:03;;;;;;;6.67;2.50;;;19.10;99.90;;;;;;5068376;28;20411;-76
2023/06/28 03:25:29;;;;;;;7.00;2.40;;;19.10;99.90;;;;;;5067544;28;20379;-77
2023/06/28 03:27:55;;;;;;;8.83;3.43;;;19.00;99.90;;;;;;5068288;28;20380;-78
2023/06/28 03:30:20;;;;;;;7.43;2.90;;;19.00;99.90;;;;;;5066465;28;20391;-78
2023/06/28 03:32:46;;;;;;;7.70;3.00;;;18.90;99.90;;;;;;5049238;28;20397;-78
2023/06/28 03:35:11;;;;;;;7.82;2.90;;;18.90;99.90;;;;;;5050095;28;20392;-78
2023/06/28 03:37:37;;;;;;;6.60;2.40;;;18.90;99.90;;;;;;5049155;28;20882;-78
2023/06/28 03:40:04;;;;;;;6.50;2.50;;;18.90;99.90;;;;;;5049058;28;20762;-76
2023/06/28 03:42:29;;;;;;;8.73;2.80;;;18.90;99.90;;;;;;5049499;28;20413;-76
2023/06/28 03:44:55;;;;;;;7.13;2.70;;;19.00;99.90;;;;;;5067452;28;20414;-76
2023/06/28 03:47:20;;;;;;;9.50;2.80;;;18.90;99.90;;;;;;5068448;28;20392;-78
2023/06/28 03:49:46;;;;;;;7.33;2.23;;;18.90;99.90;;;;;;5058335;28;20404;-77
2023/06/28 03:52:12;;;;;;;6.50;2.60;;;19.00;99.90;;;;;;5064771;28;20826;-76
2023/06/28 03:54:37;;;;;;;10.50;2.90;;;19.10;99.90;;;;;;5067787;28;20384;-76
2023/06/28 03:57:04;;;;;;;8.40;2.80;;;19.00;99.90;;;;;;5068517;28;20403;-76
2023/06/28 03:59:30;;;;;;;8.40;3.00;;;19.10;99.90;;;;;;5066383;28;21127;-76
2023/06/28 04:01:55;;;;;;;6.93;2.30;;;19.00;99.90;;;;;;5055660;28;20441;-76
2023/06/28 04:04:21;;;;;;;10.50;2.90;;;19.10;99.90;;;;;;5048970;28;20397;-76
2023/06/28 04:06:47;;;;;;;7.90;2.70;;;19.00;99.90;;;;;;5065231;28;20402;-76
2023/06/28 04:09:12;;;;;;;8.70;2.97;;;19.00;99.90;;;;;;5068752;28;20399;-76
2023/06/28 04:11:38;;;;;;;6.60;2.27;;;19.10;99.90;;;;;;5065536;28;20490;-76
2023/06/28 04:14:04;;;;;;;9.70;2.50;;;19.30;99.90;;;;;;5067872;28;20392;-76
2023/06/28 04:16:29;;;;;;;7.23;2.90;;;19.30;99.90;;;;;;5066567;28;20410;-75
2023/06/28 04:18:55;;;;;;;6.97;2.30;;;19.40;99.90;;;;;;5072837;28;20401;-75
2023/06/28 04:21:20;;;;;;;8.80;2.65;;;19.40;99.90;;;;;;5082744;28;20404;-76
2023/06/28 04:23:46;;;;;;;14.15;5.38;;;19.40;99.90;;;;;;5067221;28;20425;-76
2023/06/28 04:26:12;;;;;;;15.68;6.00;;;19.50;99.90;;;;;;5062931;28;20393;-76
2023/06/28 04:28:38;;;;;;;8.33;3.20;;;19.40;99.90;;;;;;5056246;28;20392;-76
2023/06/28 04:31:03;;;;;;;8.23;2.55;;;19.40;99.90;;;;;;5070857;28;20839;-76
2023/06/28 04:33:30;;;;;;;6.85;2.70;;;19.40;99.90;;;;;;5077666;28;20465;-76
2023/06/28 04:35:56;;;;;;;9.82;3.00;;;19.40;99.90;;;;;;5065047;28;20416;-76
2023/06/28 04:38:23;;;;;;;9.77;3.10;;;19.30;99.90;;;;;;5050086;28;20413;-76
2023/06/28 04:40:49;;;;;;;7.95;2.50;;;19.40;99.90;;;;;;5050065;28;20412;-76
2023/06/28 04:43:15;;;;;;;6.97;2.30;;;19.50;99.90;;;;;;5048969;28;20448;-77
2023/06/28 04:45:41;;;;;;;6.70;2.70;;;19.50;99.90;;;;;;5058350;28;20405;-77
2023/06/28 04:48:07;;;;;;;6.95;2.70;;;19.50;99.90;;;;;;5061195;28;20841;-77
2023/06/28 04:50:34;;;;;;;9.80;3.00;;;19.60;99.90;;;;;;5064517;28;20408;-76
2023/06/28 04:53:00;;;;;;;8.75;2.60;;;19.70;99.90;;;;;;5067236;28;20399;-76
2023/06/28 04:55:30;;;;;;;8.20;2.80;;;19.70;99.90;;;;;;5065914;28;20395;-76
2023/06/28 04:57:55;;;;;;;6.93;2.10;;;19.80;99.90;;;;;;5066104;28;20414;-76
2023/06/28 05:00:21;;;;;;;7.18;2.58;;;19.80;99.90;;;;;;5053738;28;20508;-76
2023/06/28 05:02:50;;;;;;;9.65;2.30;;;19.60;99.90;;;;;;5060832;28;20480;-76
2023/06/28 05:05:15;;;;;;;7.20;1.98;;;19.60;99.90;;;;;;5066866;28;20407;-77
2023/06/28 05:07:41;;;;;;;6.60;2.60;;;19.60;99.90;;;;;;5055213;28;20420;-77
2023/06/28 05:10:06;;;;;;;9.10;3.10;;;19.60;99.90;;;;;;5059615;28;20434;-76
2023/06/28 05:12:32;;;;;;;6.25;2.20;;;19.60;99.90;;;;;;5069682;28;20409;-77
2023/06/28 05:14:57;;;;;;;9.85;2.50;;;19.60;99.90;;;;;;5073643;28;20404;-77
2023/06/28 05:17:23;;;;;;;8.13;2.90;;;19.70;99.90;;;;;;5086615;28;20739;-76
2023/06/28 05:19:48;;;;;;;6.55;2.38;;;19.80;99.90;;;;;;5073179;28;20479;-76
2023/06/28 05:22:14;;;;;;;7.32;2.90;;;19.90;99.90;;;;;;5072172;28;20491;-77
2023/06/28 05:24:39;;;;;;;6.30;2.20;;;19.80;99.90;;;;;;5071425;28;20395;-77
2023/06/28 05:27:05;;;;;;;10.50;2.53;;;19.80;99.90;;;;;;5070900;28;20898;-77
2023/06/28 05:29:30;;;;;;;8.33;2.83;;;19.80;99.90;;;;;;5071732;28;20419;-77
2023/06/28 05:31:56;;;;;;;8.30;2.40;;;19.80;99.90;;;;;;5071019;28;20465;-77
2023/06/28 05:34:21;;;;;;;7.13;2.60;;;19.80;99.90;;;;;;5071336;28;20501;-77
2023/06/28 05:36:47;;;;;;;8.57;2.80;;;19.90;99.90;;;;;;5071551;28;20380;-77
2023/06/28 05:39:12;;;;;;;5.78;2.20;;;19.90;99.90;;;;;;5071074;28;20430;-77
2023/06/28 05:41:38;;;;;;;8.60;2.70;;;19.90;99.90;;;;;;5070884;28;20400;-77
2023/06/28 05:44:03;;;;;;;9.38;2.70;;;20.00;99.90;;;;;;5071955;28;20454;-77
2023/06/28 05:46:29;;;;;;;8.80;2.50;;;20.00;99.90;;;;;;5072495;28;20427;-77
2023/06/28 05:48:55;;;;;;;9.60;2.50;;;20.00;99.90;;;;;;5074203;28;20387;-77
2023/06/28 05:51:20;;;;;;;8.87;2.80;;;20.10;99.90;;;;;;5070963;28;20425;-77
2023/06/28 05:53:46;;;;;;;6.10;2.40;;;20.20;99.90;;;;;;5071789;28;20440;-77
2023/06/28 05:56:11;;;;;;;9.40;2.70;;;20.10;99.90;;;;;;5071193;28;20413;-77
2023/06/28 05:58:37;;;;;;;10.90;3.67;;;20.20;99.90;;;;;;5069951;28;20382;-77
2023/06/28 06:01:02;;;;;;;7.53;2.70;;;20.30;99.90;;;;;;5069706;28;20411;-77
2023/06/28 06:03:28;;;;;;;7.80;2.27;;;20.00;99.90;;;;;;5067731;28;20516;-77
2023/06/28 06:05:54;;;;;;;6.93;2.50;;;20.00;99.90;;;;;;5063196;28;20451;-77
2023/06/28 06:08:19;;;;;;;10.60;2.80;;;20.00;99.90;;;;;;5064787;28;20462;-77
2023/06/28 06:10:45;;;;;;;7.87;2.80;;;20.20;99.90;;;;;;5069133;28;20444;-77
2023/06/28 06:13:12;;;;;;;8.87;3.20;;;20.30;99.90;;;;;;5069252;28;20852;-77
2023/06/28 06:15:43;;;;;;;13.13;2.60;;;20.30;99.90;;;;;;5069176;28;20392;-77
2023/06/28 06:18:09;;;;;;;7.90;2.80;;;20.40;99.90;;;;;;5069576;28;20872;-77
2023/06/28 06:20:36;;;;;;;7.65;3.28;;;20.50;99.90;;;;;;5069416;28;20445;-77
2023/06/28 06:23:01;;;;;;;7.18;2.70;;;20.50;99.90;;;;;;5069323;28;20510;-77
2023/06/28 06:25:27;;;;;;;7.47;2.57;;;20.60;99.90;;;;;;5069199;28;20778;-77
2023/06/28 06:27:52;;;;;;;8.60;2.60;;;20.30;99.90;;;;;;5069965;28;20402;-77
2023/06/28 06:30:19;;;;;;;7.40;2.60;;;20.30;99.90;;;;;;5069844;28;20395;-77
2023/06/28 06:32:45;;;;;;;6.75;2.15;;;20.40;99.90;;;;;;5070316;28;20459;-77
2023/06/28 06:35:10;;;;;;;7.03;2.67;;;20.50;99.90;;;;;;5068743;28;20468;-77
2023/06/28 06:37:36;;;;;;;8.70;2.83;;;20.60;99.90;;;;;;5068777;28;20423;-77
2023/06/28 06:40:02;;;;;;;9.52;2.60;;;20.90;99.90;;;;;;5068142;28;20384;-77
2023/06/28 06:42:27;;;;;;;10.80;2.95;;;21.00;99.90;;;;;;5069326;28;20929;-77
2023/06/28 06:44:54;;;;;;;8.30;2.67;;;21.00;99.90;;;;;;5068900;28;21021;-77
2023/06/28 06:47:20;;;;;;;9.02;3.00;;;21.20;99.90;;;;;;5068873;28;20880;-77
2023/06/28 06:49:45;;;;;;;10.67;2.53;;;21.40;99.90;;;;;;5068503;28;20387;-77
2023/06/28 06:52:11;;;;;;;7.67;2.10;;;21.50;99.90;;;;;;5069388;28;20387;-77
2023/06/28 06:54:37;;;;;;;7.97;2.20;;;21.60;99.90;;;;;;5049735;28;20799;-77
2023/06/28 06:57:03;;;;;;;7.30;2.38;;;21.50;99.90;;;;;;5068911;28;20395;-77
2023/06/28 06:59:29;;;;;;;7.30;1.90;;;21.50;99.90;;;;;;5068818;28;20507;-77
2023/06/28 07:01:54;;;;;;;6.03;2.00;;;21.60;99.90;;;;;;5068101;28;20584;-77
2023/06/28 07:04:21;;;;;;;7.90;2.10;;;21.60;99.90;;;;;;5068968;28;20396;-77
2023/06/28 07:06:47;;;;;;;7.40;2.28;;;21.70;99.90;;;;;;5068947;28;20399;-77
2023/06/28 07:09:17;;;;;;;7.50;2.08;;;21.80;99.90;;;;;;5069577;28;20396;-77
2023/06/28 07:11:46;;;;;;;6.40;2.10;;;21.80;99.90;;;;;;5067899;28;20423;-77
2023/06/28 07:14:12;;;;;;;7.32;2.08;;;21.80;99.90;;;;;;5067088;28;20498;-77
2023/06/28 07:16:38;;;;;;;10.63;2.80;;;22.10;99.90;;;;;;5069014;28;20509;-77
2023/06/28 07:19:05;;;;;;;9.13;1.90;;;22.20;99.90;;;;;;5068482;28;20392;-77
2023/06/28 07:21:31;;;;;;;7.20;2.00;;;22.20;99.90;;;;;;5068264;28;20395;-77
2023/06/28 07:23:56;;;;;;;11.10;2.50;;;22.10;99.90;;;;;;5068175;28;20419;-77
2023/06/28 07:26:23;;;;;;;8.50;2.30;;;22.10;99.90;;;;;;5067860;28;20392;-77
2023/06/28 07:28:51;;;;;;;8.88;2.03;;;22.00;99.90;;;;;;5067822;28;20400;-77
2023/06/28 07:31:17;;;;;;;9.27;2.53;;;22.00;99.90;;;;;;5068539;28;20817;-77
2023/06/28 07:33:42;;;;;;;9.20;2.70;;;22.00;99.90;;;;;;5067672;28;20506;-77
2023/06/28 07:36:08;;;;;;;9.93;2.50;;;22.00;99.90;;;;;;5067473;28;20394;-77
2023/06/28 07:38:34;;;;;;;8.30;2.23;;;21.90;99.90;;;;;;5068835;28;20426;-77
2023/06/28 07:41:00;;;;;;;6.72;2.33;;;21.90;99.90;;;;;;5068578;28;20470;-77
2023/06/28 07:43:26;;;;;;;10.20;2.65;;;21.90;99.90;;;;;;5068799;28;20418;-77
2023/06/28 07:45:52;;;;;;;7.82;2.08;;;22.10;99.90;;;;;;5070186;28;20392;-77
2023/06/28 07:48:18;;;;;;;7.50;1.90;;;22.20;99.90;;;;;;5073499;28;20388;-77
2023/06/28 07:53:19;;;;;;;10.00;2.50;;;22.80;99.90;;;;;;5068571;22;20455;-69
2023/06/28 07:55:45;;;;;;;6.88;1.90;;;22.50;99.90;;;;;;5070099;28;20712;-70
2023/06/28 07:58:10;;;;;;;7.75;2.25;;;22.70;99.90;;;;;;5068960;28;20398;-70
2023/06/28 08:00:36;;;;;;;6.68;2.30;;;22.90;99.90;;;;;;5050629;28;20879;-71
2023/06/28 08:03:01;;;;;;;6.57;2.00;;;22.90;99.90;;;;;;5068392;28;20787;-71
2023/06/28 08:05:27;;;;;;;6.22;2.00;;;22.90;99.90;;;;;;5067602;28;20537;-71
2023/06/28 08:07:56;;;;;;;6.10;1.90;;;23.20;99.90;;;;;;5067845;28;20387;-71
2023/06/28 08:10:23;;;;;;;6.20;2.00;;;23.40;99.90;;;;;;5050677;28;20380;-71
2023/06/28 08:12:48;;;;;;;6.10;2.05;;;23.50;99.90;;;;;;5068556;28;20871;-71
2023/06/28 08:15:14;;;;;;;8.15;2.33;;;23.60;99.90;;;;;;5068212;28;20441;-71
2023/06/28 08:17:40;;;;;;;7.60;1.98;;;23.80;99.90;;;;;;5068795;28;20384;-72
2023/06/28 08:20:06;;;;;;;6.45;1.95;;;24.20;99.90;;;;;;5068435;28;20387;-70
2023/06/28 08:22:32;;;;;;;8.43;2.40;;;24.60;99.90;;;;;;5068310;28;20422;-70
2023/06/28 08:24:58;;;;;;;10.73;2.60;;;24.80;99.90;;;;;;5067913;28;20490;-71
2023/06/28 08:27:24;;;;;;;6.90;2.10;;;24.80;99.90;;;;;;5068543;28;20388;-71
2023/06/28 08:29:49;;;;;;;7.47;2.10;;;24.70;99.90;;;;;;5068222;28;20449;-71
2023/06/28 08:32:15;;;;;;;6.77;2.20;;;24.60;99.90;;;;;;5068862;28;20874;-70
2023/06/28 08:34:40;;;;;;;8.50;2.30;;;24.50;99.90;;;;;;5068035;28;20452;-70
2023/06/28 08:37:06;;;;;;;7.37;2.00;;;24.60;99.90;;;;;;5068177;28;20469;-70
2023/06/28 08:39:32;;;;;;;8.53;2.00;;;24.70;99.90;;;;;;5067791;28;20857;-70
2023/06/28 08:42:00;;;;;;;10.75;2.50;;;24.90;99.90;;;;;;5068045;28;20521;-70
2023/06/28 08:44:28;;;;;;;6.57;2.10;;;25.10;99.90;;;;;;5069203;28;20732;-69
2023/06/28 08:46:55;;;;;;;8.55;2.33;;;25.20;99.90;;;;;;5071765;28;20404;-70
2023/06/28 08:49:21;;;;;;;6.40;2.07;;;25.30;99.90;;;;;;5070432;28;20895;-69
2023/06/28 08:51:47;;;;;;;13.55;2.70;;;25.20;99.90;;;;;;5071481;28;20402;-69
2023/06/28 08:54:14;;;;;;;9.17;2.40;;;25.10;99.90;;;;;;5070299;28;20967;-69
2023/06/28 08:56:41;;;;;;;6.40;2.10;;;25.40;99.90;;;;;;5053422;28;20395;-70
2023/06/28 08:59:08;;;;;;;8.70;2.40;;;25.80;99.90;;;;;;5071515;28;20491;-70
2023/06/28 09:01:35;;;;;;;8.85;2.20;;;26.20;99.90;;;;;;5037125;28;20479;-70
2023/06/28 09:04:03;;;;;;;6.55;2.10;;;26.30;99.90;;;;;;5071401;28;20416;-70
2023/06/28 09:06:29;;;;;;;10.00;1.80;;;25.80;99.90;;;;;;5070983;28;20403;-70
2023/06/28 09:08:57;;;;;;;7.05;2.00;;;25.40;99.90;;;;;;5053587;28;20388;-71
2023/06/28 09:11:25;;;;;;;10.88;2.70;;;25.10;99.90;;;;;;5071171;28;20394;-71
2023/06/28 09:13:50;;;;;;;7.35;1.98;;;25.30;99.90;;;;;;5071384;28;20941;-71
2023/06/28 09:16:19;;;;;;;6.27;1.87;;;25.60;99.90;;;;;;5071746;28;20405;-71
2023/06/28 09:18:44;;;;;;;7.25;2.20;;;26.00;99.90;;;;;;5071681;28;20380;-71
2023/06/28 09:21:10;;;;;;;8.33;2.30;;;26.40;99.90;;;;;;5070786;28;20406;-71
2023/06/28 09:23:35;;;;;;;6.47;2.15;;;26.50;99.90;;;;;;5070897;28;20420;-71
2023/06/28 09:26:01;;;;;;;9.30;2.20;;;26.20;99.90;;;;;;5070843;28;20911;-71
2023/06/28 09:28:35;;;;;;;6.32;2.10;;;26.30;99.90;;;;;;5070692;28;20390;-71
2023/06/28 09:31:01;;;;;;;7.15;2.28;;;27.00;99.90;;;;;;5070986;28;20395;-71
2023/06/28 09:33:27;;;;;;;8.50;2.40;;;27.90;99.90;;;;;;5074667;28;20391;-71
2023/06/28 09:35:54;;;;;;;9.63;2.30;;;28.90;99.90;;;;;;5090082;28;20388;-71
2023/06/28 09:38:22;;;;;;;7.47;2.40;;;29.30;99.90;;;;;;5085034;28;20387;-71
2023/06/28 09:40:56;;;;;;;6.78;1.90;;;29.30;99.90;;;;;;5077659;28;20411;-71
2023/06/28 09:43:23;;;;;;;8.40;2.10;;;28.90;99.90;;;;;;5054864;28;20837;-71
2023/06/28 09:45:53;;;;;;;7.35;2.10;;;28.80;99.90;;;;;;5054208;28;20403;-71
2023/06/28 09:48:24;;;;;;;8.15;2.38;;;28.10;99.90;;;;;;5071694;28;20402;-71
2023/06/28 09:50:53;;;;;;;10.60;2.80;;;28.00;99.90;;;;;;5070007;28;20406;-71
2023/06/28 09:53:21;;;;;;;6.57;1.90;;;28.60;99.90;;;;;;5070888;28;20407;-71
2023/06/28 09:55:49;;;;;;;6.43;2.30;;;29.90;99.90;;;;;;5070450;28;20391;-71
2023/06/28 09:58:17;;;;;;;6.60;2.10;;;30.90;99.90;;;;;;5070852;28;20386;-71
2023/06/28 10:00:45;;;;;;;6.78;2.17;;;30.90;99.90;;;;;;5070208;28;20911;-71
2023/06/28 10:03:13;;;;;;;8.60;2.30;;;31.20;99.90;;;;;;5070204;28;20423;-71
2023/06/28 10:05:40;;;;;;;6.32;1.98;;;32.70;99.90;;;;;;5052415;28;20391;-71
2023/06/28 10:08:08;;;;;;;6.80;1.60;;;33.60;99.90;;;;;;5070469;28;20804;-71
2023/06/28 10:10:35;;;;;;;7.10;1.83;;;33.30;99.90;;;;;;5070526;28;20388;-71
2023/06/28 10:13:02;;;;;;;7.90;2.00;;;32.50;99.90;;;;;;5070860;28;20392;-71
2023/06/28 10:15:41;;;;;;;6.50;2.10;;;32.90;99.90;;;;;;5070081;28;20400;-71
2023/06/28 10:18:06;;;;;;;7.13;2.20;;;32.20;99.90;;;;;;5069895;28;20404;-71
2023/06/28 10:20:32;;;;;;;6.47;1.97;;;31.40;99.90;;;;;;5070203;28;20395;-71
2023/06/28 10:22:59;;;;;;;7.47;1.70;;;30.40;99.90;;;;;;5070168;28;20500;-71
2023/06/28 10:25:27;;;;;;;6.57;2.10;;;31.20;99.90;;;;;;5070095;28;20430;-71
2023/06/28 10:27:54;;;;;;;6.40;1.93;;;31.50;99.90;;;;;;5070082;28;20432;-71
2023/06/28 10:30:22;;;;;;;9.93;2.17;;;31.10;99.90;;;;;;5069940;28;20391;-71
2023/06/28 10:32:48;;;;;;;6.57;1.80;;;30.90;99.90;;;;;;5069521;28;20403;-71
2023/06/28 10:35:15;;;;;;;7.00;2.00;;;31.10;99.90;;;;;;5069642;28;20395;-71
2023/06/28 10:37:40;;;;;;;8.02;2.40;;;30.70;99.90;;;;;;5070180;28;20470;-71
2023/06/28 10:40:09;;;;;;;7.10;2.30;;;29.40;99.90;;;;;;5069028;28;20965;-71
2023/06/28 10:42:41;;;;;;;9.70;2.28;;;29.20;99.90;;;;;;5051896;28;20423;-71
2023/06/28 10:45:08;;;;;;;7.15;2.00;;;29.00;99.90;;;;;;5069759;28;20388;-71
2023/06/28 10:47:34;;;;;;;7.72;2.17;;;28.70;99.90;;;;;;5069267;28;20395;-71
2023/06/28 10:50:10;;;;;;;7.05;2.30;;;28.80;99.90;;;;;;5069252;28;20391;-71
2023/06/28 10:52:56;;;;;;;6.97;2.15;;;28.40;99.90;;;;;;5069111;28;20474;-71
2023/06/28 10:55:32;;;;;;;6.40;1.80;;;27.50;99.90;;;;;;5069601;28;20423;-71
2023/06/28 10:58:08;;;;;;;7.10;2.10;;;27.80;99.90;;;;;;5084705;28;20376;-71
2023/06/28 11:00:38;;;;;;;7.30;2.30;;;28.10;99.90;;;;;;5088047;28;20395;-71
2023/06/28 11:03:06;;;;;;;6.50;1.83;;;28.90;99.90;;;;;;5076318;28;20411;-71
2023/06/28 11:05:54;;;;;;;7.40;1.50;;;29.10;99.90;;;;;;5072664;28;20426;-71
2023/06/28 11:08:21;;;;;;;6.18;1.60;;;29.50;99.90;;;;;;5061365;28;20995;-71
2023/06/28 11:10:53;;;;;;;7.82;1.80;;;29.50;99.90;;;;;;5049716;28;20459;-71
2023/06/28 11:13:45;;;;;;;6.90;1.90;;;29.10;99.90;;;;;;5050203;28;20484;-71
2023/06/28 11:16:16;;;;;;;5.85;1.77;;;29.30;99.90;;;;;;5052078;28;20387;-70
2023/06/28 11:18:42;;;;;;;9.18;2.00;;;28.20;99.90;;;;;;5068327;28;20400;-71
2023/06/28 11:21:18;;;;;;;7.13;1.90;;;28.50;99.90;;;;;;5068234;28;20406;-71
2023/06/28 11:23:45;;;;;;;7.30;2.00;;;27.20;99.90;;;;;;5082066;28;20630;-71
2023/06/28 11:26:32;;;;;;;7.25;2.22;;;27.00;99.90;;;;;;5081905;28;20467;-71
2023/06/28 11:28:57;;;;;;;6.53;1.90;;;26.80;99.90;;;;;;5066066;28;20778;-71
2023/06/28 11:31:38;;;;;;;6.87;2.30;;;27.00;99.90;;;;;;5068560;28;20396;-71
2023/06/28 11:34:04;;;;;;;6.30;1.70;;;27.00;99.90;;;;;;5063731;28;20374;-71
2023/06/28 11:36:31;;;;;;;6.60;1.70;;;27.40;99.90;;;;;;5062713;28;20430;-71
2023/06/28 11:38:57;;;;;;;9.57;1.80;;;27.90;99.90;;;;;;5070259;28;20536;-71
2023/06/28 11:41:22;;;;;;;6.20;1.70;;;28.00;99.90;;;;;;5084119;28;20403;-71
2023/06/28 11:43:50;;;;;;;6.60;2.00;;;27.90;99.90;;;;;;5069411;28;20422;-71
2023/06/28 11:46:17;;;;;;;9.25;2.08;;;27.80;99.90;;;;;;5069270;28;20521;-71
2023/06/28 11:48:43;;;;;;;8.52;1.83;;;27.60;99.90;;;;;;5033906;28;20492;-71
2023/06/28 11:51:09;;;;;;;6.47;2.03;;;27.70;99.90;;;;;;5068361;28;20411;-71
2023/06/28 11:53:34;;;;;;;6.10;2.00;;;27.70;99.90;;;;;;5068290;28;20415;-71
2023/06/28 11:56:00;;;;;;;6.43;1.60;;;27.80;99.90;;;;;;5042673;28;20415;-71
2023/06/28 11:58:30;;;;;;;9.50;2.07;;;28.30;99.90;;;;;;5064704;28;20406;-70
2023/06/28 12:00:56;;;;;;;8.25;2.00;;;28.20;99.90;;;;;;5068217;28;20391;-71
2023/06/28 12:03:38;;;;;;;7.57;2.10;;;28.20;99.90;;;;;;5066935;28;20496;-71
2023/06/28 12:06:09;;;;;;;6.10;1.77;;;27.80;99.90;;;;;;5066420;28;20912;-76
2023/06/28 12:08:36;;;;;;;5.80;1.60;;;28.00;99.90;;;;;;5063674;28;20408;-76
2023/06/28 12:11:11;;;;;;;6.70;1.60;;;28.20;99.90;;;;;;5064178;28;20383;-76
2023/06/28 12:13:37;;;;;;;5.80;1.67;;;28.40;99.90;;;;;;5073159;28;20433;-76
2023/06/28 12:16:17;;;;;;;5.90;2.00;;;29.00;99.90;;;;;;5074083;28;20800;-76
2023/06/28 12:18:59;;;;;;;6.40;2.20;;;28.80;99.90;;;;;;5077645;28;20403;-76
2023/06/28 12:21:29;;;;;;;6.35;1.92;;;28.10;99.90;;;;;;5106006;28;20407;-76
2023/06/28 12:24:21;;;;;;;6.07;1.80;;;28.20;99.90;;;;;;5087733;28;20430;-76
2023/06/28 12:26:52;;;;;;;7.10;1.88;;;27.90;99.90;;;;;;5087430;28;20431;-76
2023/06/28 12:29:19;;;;;;;8.10;2.20;;;27.90;99.90;;;;;;5062887;28;20787;-76
2023/06/28 12:31:47;;;;;;;8.07;2.33;;;28.00;99.90;;;;;;5064130;28;20428;-76
2023/06/28 12:34:20;;;;;;;7.40;2.05;;;28.00;99.90;;;;;;5048442;28;20936;-76
2023/06/28 12:36:58;;;;;;;6.32;2.13;;;28.10;99.90;;;;;;5064032;28;20412;-76
2023/06/28 12:39:30;;;;;;;8.20;2.17;;;28.00;99.90;;;;;;5060814;28;20902;-77
2023/06/28 12:42:11;;;;;;;7.05;1.88;;;27.90;99.90;;;;;;5064627;28;20407;-76
2023/06/28 12:44:56;;;;;;;6.88;1.80;;;28.20;99.90;;;;;;5069736;28;20431;-76
2023/06/28 12:47:23;;;;;;;6.60;2.10;;;28.20;99.90;;;;;;5072514;28;20387;-76